首页
METAR-TAF:

METAR-TAF

机场 :

Sanderson Field Airport

雪爾頓, 华盛顿, 美国

纬度: 47-14-17N, 经度: 123-08-27W, 海拔: 82米

当前天气观测

该预报发布于26分钟前的20:32 UTC
静风
温度 9°C
湿度 87%
气压 1016 hPa
能見度: 6.4公里
阴天层高于1400英尺
小雨, 轻雾

METAR: KSHN 132032Z AUTO 00000KT 4SM -RA BR OVC014 09/07 A3000 RMK AO2 RAB31 P0000 T00890067

时间: 12:58 (20:58 UTC)


TAF: 丢失

超过4000个机场的气象观测和天气预报(METAR&TAF报告)。

可查询的气象台以黄色和红色小点在地图上表示。

将鼠标移到小点上方,可查看气象台名称。

然后点击查看天气观测和预报。

如需切换地图:点击带黑十字的绿色按钮放大地图;点击带横线的绿色按钮缩小地图;或者点击绿色箭头查看邻近地区的地图。


METAR-TAF: